Time;durP1;ratioP1;P1;durP2;ratioP2;P2;SDS_P1;SDS_P2;PMS_P1;PMS_P2;Temp;Humidity;BMP_temperature;BMP_pressure;BME280_temperature;BME280_humidity;BME280_pressure;Samples;Min_cycle;Max_cycle;Signal;HPM_P1;HPM_P2
2021/05/17 00:01:32;;;;;;;0.85;0.30;;;22.30;51.30;;;;;;5112428;28;20089;-42
2021/05/17 00:04:03;;;;;;;0.43;0.20;;;22.40;51.40;;;;;;5113365;28;20055;-45
2021/05/17 00:06:32;;;;;;;0.90;0.30;;;22.30;51.30;;;;;;5100232;28;20650;-41
2021/05/17 00:08:59;;;;;;;1.20;0.40;;;22.30;51.30;;;;;;5112478;28;20086;-46
2021/05/17 00:11:26;;;;;;;0.35;0.30;;;22.40;52.00;;;;;;5112328;28;20039;-42
2021/05/17 00:13:53;;;;;;;1.48;0.40;;;22.40;51.40;;;;;;5099989;28;20165;-43
2021/05/17 00:16:21;;;;;;;0.85;0.25;;;22.30;51.30;;;;;;5112651;28;20051;-43
2021/05/17 00:18:48;;;;;;;1.50;0.45;;;22.30;51.30;;;;;;5098682;28;20070;-42
2021/05/17 00:21:16;;;;;;;0.55;0.30;;;22.30;51.30;;;;;;5112708;28;20043;-42
2021/05/17 00:23:43;;;;;;;0.60;0.30;;;22.30;51.90;;;;;;5111981;28;20054;-43
2021/05/17 00:26:11;;;;;;;0.50;0.30;;;22.30;51.30;;;;;;5111475;28;20153;-45
2021/05/17 00:28:38;;;;;;;1.48;0.55;;;22.40;51.40;;;;;;5112824;28;20491;-45
2021/05/17 00:31:05;;;;;;;0.73;0.40;;;22.40;51.40;;;;;;5111675;27;20071;-43
2021/05/17 00:33:33;;;;;;;0.70;0.30;;;22.30;51.30;;;;;;5112008;28;20040;-40
2021/05/17 00:36:01;;;;;;;0.52;0.40;;;22.30;51.30;;;;;;5112211;28;20505;-44
2021/05/17 00:38:28;;;;;;;0.88;0.32;;;22.30;51.30;;;;;;5111023;28;20044;-42
2021/05/17 00:40:55;;;;;;;1.38;0.40;;;22.30;51.30;;;;;;5112542;28;20051;-42
2021/05/17 00:43:27;;;;;;;0.20;0.20;;;22.40;51.40;;;;;;5111392;28;20388;-39
2021/05/17 00:45:55;;;;;;;0.65;0.35;;;22.30;51.30;;;;;;5111253;28;20127;-43
2021/05/17 00:48:23;;;;;;;0.22;0.20;;;22.40;51.40;;;;;;5111826;28;20047;-40
2021/05/17 00:50:50;;;;;;;0.40;0.40;;;22.40;51.40;;;;;;5110145;28;20132;-42
2021/05/17 00:53:19;;;;;;;0.50;0.28;;;22.30;51.30;;;;;;5112228;28;20119;-44
2021/05/17 00:55:47;;;;;;;0.38;0.30;;;22.40;51.40;;;;;;5111033;28;20047;-41
2021/05/17 00:58:14;;;;;;;0.38;0.38;;;22.30;51.30;;;;;;5110781;28;20059;-45
2021/05/17 01:00:42;;;;;;;0.30;0.30;;;22.30;51.30;;;;;;5112021;28;20059;-39
2021/05/17 01:03:10;;;;;;;0.40;0.38;;;22.30;51.40;;;;;;5110799;28;20434;-39
2021/05/17 01:05:38;;;;;;;0.82;0.40;;;22.40;51.40;;;;;;5111155;27;20078;-40
2021/05/17 01:08:09;;;;;;;0.40;0.30;;;22.40;51.40;;;;;;5110954;28;20050;-39
2021/05/17 01:10:42;;;;;;;0.60;0.30;;;22.30;51.30;;;;;;5110393;28;20069;-40
2021/05/17 01:13:10;;;;;;;0.65;0.50;;;22.40;51.40;;;;;;5111320;28;20043;-39
2021/05/17 01:15:37;;;;;;;0.35;0.30;;;22.30;51.30;;;;;;5110422;27;20090;-40
2021/05/17 01:18:05;;;;;;;1.02;0.30;;;22.30;51.30;;;;;;5111267;27;20105;-40
2021/05/17 01:20:33;;;;;;;0.40;0.28;;;22.40;51.40;;;;;;5111531;28;20134;-39
2021/05/17 01:25:57;;;;;;;0.75;0.40;;;22.30;51.40;;;;;;5110949;28;20429;-40
2021/05/17 01:28:29;;;;;;;0.82;0.30;;;22.30;51.40;;;;;;5111293;28;20121;-40
2021/05/17 01:30:59;;;;;;;0.73;0.30;;;22.30;51.40;;;;;;5109229;28;20047;-40
2021/05/17 01:33:44;;;;;;;0.55;0.30;;;22.30;51.40;;;;;;5112147;28;20047;-39
2021/05/17 01:36:13;;;;;;;0.47;0.30;;;22.30;51.40;;;;;;5110215;28;20075;-39
2021/05/17 01:38:44;;;;;;;0.60;0.30;;;22.30;51.40;;;;;;5110173;28;20096;-41
2021/05/17 01:41:13;;;;;;;0.60;0.28;;;22.30;51.40;;;;;;5111813;28;20052;-40
2021/05/17 01:43:45;;;;;;;0.32;0.30;;;22.40;51.50;;;;;;5110424;27;20059;-40
2021/05/17 01:46:15;;;;;;;0.65;0.38;;;22.30;51.40;;;;;;5110204;28;20052;-41
2021/05/17 01:48:43;;;;;;;0.80;0.30;;;22.30;51.40;;;;;;5111274;28;20105;-41
2021/05/17 01:51:16;;;;;;;0.98;0.30;;;22.30;51.40;;;;;;5097576;28;20108;-40
2021/05/17 01:53:44;;;;;;;0.73;0.32;;;22.30;51.40;;;;;;5111204;28;20142;-39
2021/05/17 01:56:13;;;;;;;0.82;0.47;;;22.30;51.40;;;;;;5110010;28;20039;-40
2021/05/17 01:58:41;;;;;;;0.30;0.30;;;22.30;51.40;;;;;;5109937;28;20502;-40
2021/05/17 02:01:12;;;;;;;0.57;0.22;;;22.30;51.40;;;;;;5111256;28;20079;-40
2021/05/17 02:03:41;;;;;;;0.40;0.22;;;22.30;51.40;;;;;;5109609;28;20142;-41
2021/05/17 02:06:11;;;;;;;1.48;0.30;;;22.30;51.40;;;;;;5109869;28;20486;-39
2021/05/17 02:08:42;;;;;;;0.40;0.30;;;22.30;51.40;;;;;;5110626;28;20147;-39
2021/05/17 02:11:14;;;;;;;0.63;0.40;;;22.30;51.40;;;;;;5109086;28;20036;-41
2021/05/17 02:13:42;;;;;;;1.00;0.40;;;22.30;51.40;;;;;;5110395;28;20083;-42
2021/05/17 02:16:15;;;;;;;0.52;0.40;;;22.30;51.40;;;;;;5109391;28;20055;-39
2021/05/17 02:18:49;;;;;;;0.40;0.30;;;22.30;51.40;;;;;;5109573;28;20077;-40
2021/05/17 02:21:18;;;;;;;0.93;0.40;;;22.30;51.40;;;;;;5110940;28;20051;-40
2021/05/17 02:23:46;;;;;;;1.42;0.55;;;22.30;51.40;;;;;;5112284;28;20079;-42
2021/05/17 02:26:13;;;;;;;0.30;0.17;;;22.30;51.40;;;;;;5114878;28;20551;-40
2021/05/17 02:28:41;;;;;;;0.32;0.28;;;22.30;51.40;;;;;;5114358;28;20127;-41
2021/05/17 02:31:09;;;;;;;0.32;0.30;;;22.30;51.40;;;;;;5113107;28;20071;-40
2021/05/17 02:33:37;;;;;;;0.93;0.40;;;22.30;51.40;;;;;;5115318;28;20056;-41
2021/05/17 02:36:07;;;;;;;0.30;0.30;;;22.30;51.40;;;;;;5101455;28;20067;-41
2021/05/17 02:38:34;;;;;;;2.00;0.30;;;22.30;51.40;;;;;;5114281;27;20048;-42
2021/05/17 02:41:03;;;;;;;1.35;0.43;;;22.30;51.40;;;;;;5114559;28;20047;-40
2021/05/17 02:43:32;;;;;;;1.02;0.50;;;22.30;51.40;;;;;;5113054;28;20108;-45
2021/05/17 02:46:01;;;;;;;1.10;0.28;;;22.30;51.40;;;;;;5114880;28;20054;-40
2021/05/17 02:48:29;;;;;;;0.50;0.30;;;22.30;51.40;;;;;;5113701;27;20047;-40
2021/05/17 02:50:58;;;;;;;0.28;0.28;;;22.30;51.40;;;;;;5113196;28;20050;-40
2021/05/17 02:53:37;;;;;;;0.32;0.25;;;22.30;51.40;;;;;;5114735;28;20468;-39
2021/05/17 02:56:09;;;;;;;0.38;0.20;;;22.30;51.40;;;;;;5112623;28;20036;-40
2021/05/17 02:58:39;;;;;;;0.30;0.20;;;22.30;51.40;;;;;;5104342;27;20075;-42
2021/05/17 03:01:07;;;;;;;0.60;0.30;;;22.30;51.40;;;;;;5114070;28;20059;-40
2021/05/17 03:03:49;;;;;;;0.70;0.30;;;22.30;51.40;;;;;;5112840;27;20135;-40
2021/05/17 03:06:22;;;;;;;0.63;0.20;;;22.30;51.40;;;;;;5104959;28;24444;-40
2021/05/17 03:09:08;;;;;;;0.68;0.30;;;22.30;51.40;;;;;;5113345;28;20081;-40
2021/05/17 03:11:38;;;;;;;0.32;0.30;;;22.30;51.40;;;;;;5112530;28;20040;-39
2021/05/17 03:14:07;;;;;;;0.20;0.10;;;22.30;51.40;;;;;;5113745;28;20479;-39
2021/05/17 03:16:36;;;;;;;0.47;0.30;;;22.30;51.40;;;;;;5112245;28;20187;-40
2021/05/17 03:19:04;;;;;;;0.75;0.40;;;22.30;51.40;;;;;;5112994;28;20047;-40
2021/05/17 03:21:32;;;;;;;0.63;0.30;;;22.30;51.40;;;;;;5113756;28;20396;-40
2021/05/17 03:24:01;;;;;;;1.17;0.45;;;22.30;51.40;;;;;;5112379;28;20062;-41
2021/05/17 03:26:29;;;;;;;0.50;0.32;;;22.30;51.40;;;;;;5113921;28;20044;-40
2021/05/17 03:28:57;;;;;;;0.45;0.22;;;22.30;51.40;;;;;;5113352;28;20803;-40
2021/05/17 03:31:24;;;;;;;1.20;0.43;;;22.30;51.40;;;;;;5102659;28;20483;-41
2021/05/17 03:33:51;;;;;;;0.55;0.30;;;22.30;51.40;;;;;;5113380;28;20496;-40
2021/05/17 03:36:18;;;;;;;0.30;0.25;;;22.30;51.40;;;;;;5111478;28;20487;-40
2021/05/17 03:38:45;;;;;;;1.15;0.35;;;22.30;51.40;;;;;;5113184;28;20483;-39
2021/05/17 03:41:12;;;;;;;0.75;0.38;;;22.30;51.40;;;;;;5112260;28;20083;-40
2021/05/17 03:43:39;;;;;;;0.70;0.35;;;22.30;51.40;;;;;;5112674;28;20101;-40
2021/05/17 03:46:06;;;;;;;0.60;0.30;;;22.30;51.40;;;;;;5113622;28;20555;-40
2021/05/17 03:48:40;;;;;;;1.10;0.30;;;22.30;51.40;;;;;;5111243;28;20039;-40
2021/05/17 03:51:09;;;;;;;0.40;0.20;;;22.30;51.40;;;;;;5112408;28;20048;-39
2021/05/17 03:53:37;;;;;;;0.30;0.30;;;22.30;51.50;;;;;;5113056;28;20096;-39
2021/05/17 03:56:04;;;;;;;0.20;0.20;;;22.30;51.50;;;;;;5111728;28;20547;-39
2021/05/17 03:58:32;;;;;;;0.80;0.20;;;22.30;51.50;;;;;;5112892;28;20055;-40
2021/05/17 04:01:00;;;;;;;0.30;0.20;;;22.30;51.40;;;;;;5111889;28;20048;-40
2021/05/17 04:03:27;;;;;;;0.40;0.22;;;22.30;51.40;;;;;;5111905;28;20059;-41
2021/05/17 04:13:37;;;;;;;0.45;0.30;;;22.30;51.40;;;;;;5112194;28;20445;-41
2021/05/17 04:16:05;;;;;;;0.60;0.47;;;22.30;51.40;;;;;;5111484;28;20113;-39
2021/05/17 04:18:32;;;;;;;0.63;0.40;;;22.30;51.50;;;;;;5112895;28;20108;-39
2021/05/17 04:20:59;;;;;;;0.38;0.20;;;22.30;51.50;;;;;;5111940;28;20070;-39
2021/05/17 04:23:28;;;;;;;0.30;0.20;;;22.30;51.40;;;;;;5112695;28;20040;-39
2021/05/17 04:25:55;;;;;;;0.63;0.20;;;22.30;51.40;;;;;;5112062;28;20051;-40
2021/05/17 04:28:23;;;;;;;1.10;0.30;;;22.30;51.50;;;;;;5111214;28;20055;-39
2021/05/17 04:30:50;;;;;;;0.57;0.30;;;22.30;51.40;;;;;;5112585;28;20065;-40
2021/05/17 04:33:17;;;;;;;0.40;0.30;;;22.30;51.40;;;;;;5111354;28;20055;-40
2021/05/17 04:35:44;;;;;;;0.52;0.30;;;22.30;51.40;;;;;;5101883;28;20080;-39
2021/05/17 04:38:11;;;;;;;0.50;0.30;;;22.30;51.50;;;;;;5112180;28;20462;-39
2021/05/17 04:40:39;;;;;;;0.50;0.30;;;22.30;51.50;;;;;;5110937;27;20052;-39
2021/05/17 04:43:06;;;;;;;0.28;0.28;;;22.30;51.40;;;;;;5112196;28;20487;-40
2021/05/17 04:45:33;;;;;;;0.22;0.20;;;22.30;51.50;;;;;;5097081;28;20048;-39
2021/05/17 04:48:00;;;;;;;0.22;0.22;;;22.30;51.40;;;;;;5111757;28;20487;-39
2021/05/17 04:50:27;;;;;;;0.20;0.20;;;22.30;51.40;;;;;;5100535;28;20051;-39
2021/05/17 04:52:55;;;;;;;0.38;0.28;;;22.30;51.40;;;;;;5111005;27;20466;-39
2021/05/17 04:55:22;;;;;;;0.40;0.25;;;22.30;51.50;;;;;;5112461;28;20040;-43
2021/05/17 04:57:49;;;;;;;0.20;0.20;;;22.30;51.40;;;;;;5111495;28;20047;-41
2021/05/17 05:00:17;;;;;;;1.02;0.30;;;22.30;51.50;;;;;;5110351;28;20427;-45
2021/05/17 05:02:44;;;;;;;0.50;0.30;;;22.30;51.50;;;;;;5112363;28;20058;-41
2021/05/17 05:05:12;;;;;;;0.77;0.47;;;22.30;51.40;;;;;;5110352;28;20048;-40
2021/05/17 05:07:39;;;;;;;0.47;0.30;;;22.30;51.40;;;;;;5111280;28;20075;-40
2021/05/17 05:10:07;;;;;;;0.50;0.30;;;22.30;51.50;;;;;;5111318;28;20043;-41
2021/05/17 05:12:34;;;;;;;0.55;0.20;;;22.30;51.40;;;;;;5110402;28;20112;-39
2021/05/17 05:15:02;;;;;;;0.35;0.30;;;22.30;51.40;;;;;;5111157;28;20044;-41
2021/05/17 05:17:29;;;;;;;0.50;0.30;;;22.30;51.40;;;;;;5100366;28;20487;-41
2021/05/17 05:19:56;;;;;;;0.70;0.30;;;22.30;51.40;;;;;;5111185;28;20043;-42
2021/05/17 05:22:24;;;;;;;0.30;0.30;;;22.30;51.50;;;;;;5111192;28;20039;-44
2021/05/17 05:24:55;;;;;;;0.95;0.50;;;22.30;51.40;;;;;;5110053;28;20043;-40
2021/05/17 05:27:35;;;;;;;0.57;0.25;;;22.30;51.40;;;;;;5111885;28;20100;-40
2021/05/17 05:30:17;;;;;;;0.80;0.30;;;22.30;51.40;;;;;;5110450;28;20047;-41
2021/05/17 05:33:06;;;;;;;0.47;0.22;;;22.30;51.40;;;;;;5110379;28;20039;-43
2021/05/17 05:35:34;;;;;;;1.10;0.55;;;22.30;51.40;;;;;;5111837;28;20046;-40
2021/05/17 05:38:01;;;;;;;0.30;0.30;;;22.30;51.50;;;;;;5111011;28;20055;-43
2021/05/17 05:40:28;;;;;;;0.70;0.22;;;22.30;51.40;;;;;;5109987;28;20384;-46
2021/05/17 05:42:55;;;;;;;0.22;0.20;;;22.30;51.50;;;;;;5112161;28;20059;-44
2021/05/17 05:45:26;;;;;;;0.20;0.20;;;22.30;51.50;;;;;;5111061;28;20510;-40
2021/05/17 05:47:53;;;;;;;0.93;0.30;;;22.30;51.50;;;;;;5111641;27;20070;-43
2021/05/17 05:50:20;;;;;;;1.02;0.35;;;22.30;51.50;;;;;;5110811;28;20048;-41
2021/05/17 05:52:47;;;;;;;0.77;0.32;;;22.30;51.50;;;;;;5109222;28;20094;-45
2021/05/17 05:55:16;;;;;;;0.45;0.40;;;22.30;51.50;;;;;;5111455;28;20043;-42
2021/05/17 05:57:44;;;;;;;0.65;0.30;;;22.30;51.50;;;;;;5108884;28;20052;-43
2021/05/17 06:00:15;;;;;;;0.52;0.22;;;22.30;52.10;;;;;;5110191;28;20040;-43
2021/05/17 06:02:43;;;;;;;0.22;0.20;;;22.30;51.50;;;;;;5110961;28;20388;-45
2021/05/17 06:05:10;;;;;;;0.20;0.20;;;22.30;51.50;;;;;;5110065;28;20068;-47
2021/05/17 06:07:38;;;;;;;0.60;0.30;;;22.30;51.40;;;;;;5111164;28;20044;-40
2021/05/17 06:10:06;;;;;;;0.32;0.22;;;22.30;51.50;;;;;;5110862;28;20122;-44
2021/05/17 06:12:34;;;;;;;0.60;0.30;;;22.30;51.50;;;;;;5109323;28;20040;-43
2021/05/17 06:15:03;;;;;;;0.45;0.30;;;22.30;51.50;;;;;;5110635;28;20448;-43
2021/05/17 06:17:31;;;;;;;0.50;0.30;;;22.30;51.40;;;;;;5108990;28;20109;-44
2021/05/17 06:19:59;;;;;;;0.50;0.30;;;22.30;51.40;;;;;;5110257;28;20447;-41
2021/05/17 06:22:28;;;;;;;0.40;0.28;;;22.30;51.50;;;;;;5099290;28;20048;-41
2021/05/17 06:24:59;;;;;;;0.30;0.30;;;22.30;51.50;;;;;;5109967;28;20054;-43
2021/05/17 06:27:26;;;;;;;0.70;0.40;;;22.30;51.50;;;;;;5111443;28;20055;-41
2021/05/17 06:29:56;;;;;;;0.50;0.30;;;22.30;51.50;;;;;;5108700;28;20108;-44
2021/05/17 06:32:24;;;;;;;0.47;0.20;;;22.30;51.50;;;;;;5109571;28;20054;-43
2021/05/17 06:34:52;;;;;;;0.20;0.20;;;22.30;51.50;;;;;;5110626;28;20093;-45
2021/05/17 06:37:19;;;;;;;0.82;0.40;;;22.30;51.50;;;;;;5109451;28;20105;-41
2021/05/17 06:39:46;;;;;;;0.22;0.20;;;22.30;51.50;;;;;;5110829;28;20121;-45
2021/05/17 06:42:14;;;;;;;0.60;0.40;;;22.30;51.50;;;;;;5109485;28;20086;-44
2021/05/17 06:44:41;;;;;;;0.47;0.30;;;22.30;51.50;;;;;;5110066;28;20051;-43
2021/05/17 06:47:10;;;;;;;0.40;0.30;;;22.30;51.50;;;;;;5109740;28;20058;-42
2021/05/17 06:49:38;;;;;;;0.47;0.20;;;22.30;51.50;;;;;;5108235;28;20526;-42
2021/05/17 06:52:09;;;;;;;0.40;0.30;;;22.30;51.50;;;;;;5110447;28;20225;-43
2021/05/17 06:54:36;;;;;;;0.32;0.30;;;22.30;51.50;;;;;;5110527;28;20464;-46
2021/05/17 06:57:17;;;;;;;0.55;0.30;;;22.30;51.50;;;;;;5110116;28;20047;-46
2021/05/17 06:59:47;;;;;;;0.43;0.30;;;22.40;51.60;;;;;;5110417;28;20090;-45
2021/05/17 07:02:20;;;;;;;0.45;0.20;;;22.30;51.50;;;;;;5107685;28;20048;-46
2021/05/17 07:04:49;;;;;;;0.47;0.30;;;22.30;51.50;;;;;;5110047;28;20097;-48
2021/05/17 07:07:26;;;;;;;0.65;0.43;;;22.40;51.60;;;;;;5097558;28;20047;-46
2021/05/17 07:12:39;;;;;;;0.35;0.35;;;22.30;51.50;;;;;;5104815;28;20453;-41
2021/05/17 07:15:06;;;;;;;0.80;0.30;;;22.30;51.50;;;;;;5112391;28;20056;-41
2021/05/17 07:17:33;;;;;;;2.33;0.35;;;22.30;51.50;;;;;;5112701;28;20062;-39
2021/05/17 07:20:00;;;;;;;0.30;0.28;;;22.30;51.50;;;;;;5114434;28;20052;-40
2021/05/17 07:25:13;;;;;;;0.30;0.20;;;22.30;51.50;;;;;;5112151;28;20130;-40
2021/05/17 07:27:40;;;;;;;0.45;0.30;;;22.30;51.50;;;;;;5112923;28;20047;-40
2021/05/17 07:30:08;;;;;;;0.30;0.20;;;22.30;51.50;;;;;;5112537;27;20452;-40
2021/05/17 07:32:35;;;;;;;0.95;0.43;;;22.30;51.50;;;;;;5114224;27;20097;-40
2021/05/17 07:35:03;;;;;;;0.95;0.20;;;22.40;51.60;;;;;;5111864;28;20136;-43
2021/05/17 07:37:32;;;;;;;0.80;0.30;;;22.30;51.50;;;;;;5113064;27;20062;-42
2021/05/17 07:39:59;;;;;;;0.50;0.20;;;22.40;51.60;;;;;;5113697;28;20052;-39
2021/05/17 07:42:27;;;;;;;0.73;0.40;;;22.30;51.50;;;;;;5112324;27;20705;-40
2021/05/17 07:44:54;;;;;;;0.50;0.28;;;22.30;51.50;;;;;;5112353;28;20043;-40
2021/05/17 07:47:21;;;;;;;0.63;0.40;;;22.30;51.50;;;;;;5112715;28;20396;-41
2021/05/17 07:49:55;;;;;;;0.28;0.25;;;22.40;51.60;;;;;;5101667;28;20039;-41
2021/05/17 07:52:22;;;;;;;;;;;22.40;51.60;;;;;;5112482;28;20051;-42
2021/05/17 07:54:50;;;;;;;1.00;0.20;;;22.30;51.50;;;;;;5111512;28;19926;-42
2021/05/17 07:57:17;;;;;;;0.20;0.13;;;22.30;51.50;;;;;;5112843;28;20043;-40
2021/05/17 07:59:44;;;;;;;0.40;0.30;;;22.30;51.50;;;;;;5112374;28;20044;-40
2021/05/17 08:02:13;;;;;;;0.50;0.20;;;22.30;51.50;;;;;;5111514;28;20493;-43
2021/05/17 08:04:41;;;;;;;0.90;0.30;;;22.30;51.50;;;;;;5113200;28;20388;-43
2021/05/17 08:07:08;;;;;;;0.40;0.30;;;22.30;51.50;;;;;;5111906;28;20051;-42
2021/05/17 08:09:35;;;;;;;0.77;0.40;;;22.30;51.50;;;;;;5112813;28;20048;-43
2021/05/17 08:12:03;;;;;;;0.52;0.38;;;22.40;51.60;;;;;;5112906;28;20059;-40
2021/05/17 08:14:30;;;;;;;0.20;0.20;;;22.30;51.50;;;;;;5110264;28;20110;-42
2021/05/17 08:16:57;;;;;;;0.50;0.40;;;22.40;51.60;;;;;;5112356;28;20090;-42
2021/05/17 08:19:25;;;;;;;0.60;0.30;;;22.30;51.50;;;;;;5112241;28;20122;-41
2021/05/17 08:21:52;;;;;;;0.38;0.22;;;22.30;51.50;;;;;;5099083;28;20071;-41
2021/05/17 08:24:19;;;;;;;0.63;0.30;;;22.40;51.60;;;;;;5112783;28;20048;-43
2021/05/17 08:26:47;;;;;;;0.40;0.20;;;22.30;51.50;;;;;;5111629;27;20051;-44
2021/05/17 08:29:14;;;;;;;0.32;0.25;;;22.30;51.50;;;;;;5101880;27;20427;-41
2021/05/17 08:31:43;;;;;;;0.22;0.22;;;22.30;51.50;;;;;;5111815;28;20089;-44
2021/05/17 08:34:11;;;;;;;0.63;0.30;;;22.30;51.50;;;;;;5111729;28;20538;-47
2021/05/17 08:36:39;;;;;;;0.50;0.30;;;22.40;51.60;;;;;;5113243;28;20461;-48
2021/05/17 08:39:07;;;;;;;0.30;0.30;;;22.30;51.50;;;;;;5111169;28;20044;-48
2021/05/17 08:41:35;;;;;;;0.70;0.40;;;22.30;51.40;;;;;;5110823;28;20051;-44
2021/05/17 08:44:04;;;;;;;0.40;0.30;;;22.30;51.50;;;;;;5111722;28;20057;-42
2021/05/17 08:46:31;;;;;;;1.30;0.30;;;22.40;51.50;;;;;;5110362;28;20546;-45
2021/05/17 08:48:59;;;;;;;0.22;0.20;;;22.40;51.50;;;;;;5112067;28;20044;-43
2021/05/17 08:51:32;;;;;;;0.57;0.20;;;22.40;51.60;;;;;;5111513;28;20082;-45
2021/05/17 08:54:06;;;;;;;0.30;0.20;;;22.40;51.50;;;;;;5100799;28;20048;-43
2021/05/17 08:56:34;;;;;;;0.30;0.30;;;22.40;51.50;;;;;;5112284;28;20048;-41
2021/05/17 08:59:04;;;;;;;0.30;0.25;;;22.40;51.50;;;;;;5110468;28;20047;-43
2021/05/17 09:01:33;;;;;;;0.40;0.20;;;22.40;51.50;;;;;;5111241;28;20066;-47
2021/05/17 09:04:03;;;;;;;0.65;0.30;;;22.40;51.50;;;;;;5111556;28;20543;-44
2021/05/17 09:06:53;;;;;;;0.50;0.40;;;22.40;51.60;;;;;;5110213;28;20054;-44
2021/05/17 09:09:39;;;;;;;0.65;0.40;;;22.40;51.50;;;;;;5112248;28;20471;-42
2021/05/17 09:12:12;;;;;;;0.20;0.20;;;22.40;51.50;;;;;;5111504;28;20051;-46
2021/05/17 09:14:41;;;;;;;0.55;0.20;;;22.40;51.50;;;;;;5108881;28;20043;-45
2021/05/17 09:17:12;;;;;;;0.63;0.30;;;22.40;51.50;;;;;;5112096;28;20052;-44
2021/05/17 09:19:41;;;;;;;0.40;0.20;;;22.40;51.50;;;;;;5111749;28;20487;-44
2021/05/17 09:22:16;;;;;;;0.40;0.30;;;22.40;51.50;;;;;;5110554;28;20126;-50
2021/05/17 09:24:46;;;;;;;0.32;0.28;;;22.40;51.40;;;;;;5111244;28;20052;-45
2021/05/17 09:27:19;;;;;;;0.35;0.25;;;22.40;51.50;;;;;;5109411;28;20051;-47
2021/05/17 09:29:52;;;;;;;0.28;0.22;;;22.40;51.40;;;;;;5111823;28;20083;-46
2021/05/17 09:32:26;;;;;;;0.88;0.30;;;22.40;51.40;;;;;;5111273;28;20043;-46
2021/05/17 09:34:59;;;;;;;0.57;0.20;;;22.40;51.40;;;;;;5109828;28;20097;-48
2021/05/17 09:37:40;;;;;;;0.30;0.22;;;22.40;51.50;;;;;;5111697;28;20048;-45
2021/05/17 09:40:21;;;;;;;0.45;0.25;;;22.40;51.40;;;;;;5110444;28;20055;-47
2021/05/17 09:43:01;;;;;;;0.52;0.30;;;22.50;51.50;;;;;;5109581;27;20104;-44
2021/05/17 09:45:46;;;;;;;0.70;0.22;;;22.50;51.50;;;;;;5110882;27;20493;-45
2021/05/17 09:48:15;;;;;;;0.22;0.20;;;22.40;51.40;;;;;;5110841;28;20051;-44
2021/05/17 09:51:01;;;;;;;0.30;0.20;;;22.40;51.40;;;;;;5110200;28;20051;-48
2021/05/17 09:53:32;;;;;;;0.30;0.30;;;22.50;51.50;;;;;;5110734;28;20130;-45
2021/05/17 09:56:06;;;;;;;0.45;0.20;;;22.50;51.50;;;;;;5109876;28;20096;-46
2021/05/17 09:58:39;;;;;;;0.57;0.35;;;22.40;51.40;;;;;;5109977;28;20039;-44
2021/05/17 10:01:10;;;;;;;0.82;0.52;;;22.50;51.50;;;;;;5111550;28;20048;-45
2021/05/17 10:03:40;;;;;;;0.52;0.32;;;22.50;51.50;;;;;;5108774;28;20222;-44
2021/05/17 10:06:09;;;;;;;0.47;0.30;;;22.50;51.50;;;;;;5110776;28;20047;-46
2021/05/17 10:08:37;;;;;;;0.30;0.30;;;22.50;51.50;;;;;;5110433;28;20381;-43
2021/05/17 10:11:05;;;;;;;0.43;0.30;;;22.50;51.50;;;;;;5081482;28;20090;-46
2021/05/17 10:13:35;;;;;;;0.30;0.20;;;22.50;51.50;;;;;;5109931;28;20063;-45
2021/05/17 10:16:08;;;;;;;0.77;0.40;;;22.50;52.10;;;;;;5109055;28;20060;-44
2021/05/17 10:18:36;;;;;;;1.95;0.30;;;22.50;51.40;;;;;;5110537;28;20116;-43
2021/05/17 10:21:05;;;;;;;0.30;0.20;;;22.50;51.50;;;;;;5110999;28;20479;-45
2021/05/17 10:23:33;;;;;;;0.40;0.20;;;22.50;51.40;;;;;;5109142;28;20172;-44
2021/05/17 10:26:07;;;;;;;0.38;0.20;;;22.50;51.40;;;;;;5111113;28;20043;-43
2021/05/17 10:28:36;;;;;;;0.47;0.30;;;22.50;51.40;;;;;;5110487;28;20487;-46
2021/05/17 10:31:09;;;;;;;0.30;0.20;;;22.50;51.40;;;;;;5110169;28;20052;-43
2021/05/17 10:33:36;;;;;;;0.50;0.40;;;22.50;51.40;;;;;;5111134;28;20069;-43
2021/05/17 10:36:06;;;;;;;0.30;0.30;;;22.50;51.40;;;;;;5108839;28;20039;-43
2021/05/17 10:38:47;;;;;;;0.20;0.20;;;22.50;51.40;;;;;;5110121;28;20474;-43
2021/05/17 10:46:35;;;;;;;0.43;0.32;;;22.50;51.40;;;;;;5110099;28;20056;-45
2021/05/17 10:46:45;;;;;;;0.40;0.22;;;22.50;51.40;;;;;;5102758;28;20550;-43
2021/05/17 10:49:35;;;;;;;0.47;0.30;;;22.50;51.40;;;;;;5114256;28;20047;-44
2021/05/17 10:52:06;;;;;;;0.63;0.32;;;22.50;51.40;;;;;;5113163;28;20502;-41
2021/05/17 10:54:36;;;;;;;0.57;0.40;;;22.50;51.40;;;;;;5113786;27;20047;-40
2021/05/17 10:57:17;;;;;;;0.28;0.20;;;22.50;51.40;;;;;;5114270;28;20070;-40
2021/05/17 11:02:37;;;;;;;0.73;0.32;;;22.50;51.40;;;;;;5114471;27;20048;-41
2021/05/17 11:05:30;;;;;;;0.30;0.10;;;22.50;51.40;;;;;;5114185;28;20044;-42
2021/05/17 11:08:01;;;;;;;0.45;0.25;;;22.50;51.40;;;;;;5112392;28;20113;-42
2021/05/17 11:10:54;;;;;;;1.50;0.30;;;22.50;51.40;;;;;;5114068;27;20472;-40
2021/05/17 11:13:30;;;;;;;0.40;0.28;;;22.50;51.40;;;;;;5113206;28;20040;-42
2021/05/17 11:15:59;;;;;;;0.40;0.40;;;22.50;51.40;;;;;;5112607;27;20056;-39
2021/05/17 11:18:36;;;;;;;0.30;0.30;;;22.50;51.40;;;;;;5114163;28;20040;-40
2021/05/17 11:21:27;;;;;;;0.70;0.25;;;22.50;51.40;;;;;;5113138;28;20051;-40
2021/05/17 11:24:00;;;;;;;0.38;0.20;;;22.50;52.00;;;;;;5111805;28;20088;-39
2021/05/17 11:26:30;;;;;;;0.45;0.25;;;22.50;51.40;;;;;;5113213;28;20126;-41
2021/05/17 11:28:59;;;;;;;0.68;0.32;;;22.50;51.40;;;;;;5113254;28;20052;-41
2021/05/17 11:31:35;;;;;;;0.35;0.30;;;22.50;51.40;;;;;;5112568;28;20071;-40
2021/05/17 11:34:02;;;;;;;0.40;0.30;;;22.50;51.40;;;;;;5114159;28;20137;-40
2021/05/17 11:36:47;;;;;;;0.60;0.40;;;22.50;51.40;;;;;;5112021;28;20088;-40
2021/05/17 11:39:36;;;;;;;0.52;0.40;;;22.50;51.40;;;;;;5113466;28;20075;-40
2021/05/17 11:42:05;;;;;;;0.20;0.20;;;22.50;51.40;;;;;;5113353;28;20461;-40
2021/05/17 11:45:29;;;;;;;0.50;0.30;;;22.50;51.40;;;;;;5112073;27;20051;-40
2021/05/17 11:47:31;;;;;;;0.40;0.30;;;22.50;51.40;;;;;;5101464;28;20052;-40
2021/05/17 11:49:59;;;;;;;0.70;0.32;;;22.50;51.40;;;;;;5113553;28;20040;-42
2021/05/17 11:52:32;;;;;;;0.85;0.30;;;22.50;51.40;;;;;;5111924;28;20097;-40
2021/05/17 11:55:01;;;;;;;0.70;0.40;;;22.50;51.40;;;;;;5112472;27;20040;-40
2021/05/17 11:57:30;;;;;;;0.30;0.20;;;22.50;51.40;;;;;;5112606;28;20059;-40
2021/05/17 12:00:21;;;;;;;1.17;0.30;;;22.50;51.40;;;;;;5111652;28;20044;-40
2021/05/17 12:02:52;;;;;;;0.60;0.40;;;22.50;51.40;;;;;;5112330;28;20492;-40
2021/05/17 12:05:22;;;;;;;0.40;0.30;;;22.50;51.40;;;;;;5112052;28;20491;-41
2021/05/17 12:07:52;;;;;;;0.60;0.30;;;22.50;51.40;;;;;;5100850;28;20082;-42
2021/05/17 12:10:21;;;;;;;0.40;0.30;;;22.50;51.40;;;;;;5113409;28;20048;-41
2021/05/17 12:12:51;;;;;;;0.65;0.43;;;22.50;51.40;;;;;;5111951;27;20083;-41
2021/05/17 12:15:21;;;;;;;1.08;0.30;;;22.50;51.40;;;;;;5111543;27;20047;-41
2021/05/17 12:17:48;;;;;;;0.50;0.30;;;22.50;51.30;;;;;;5112844;28;20052;-41
2021/05/17 12:20:17;;;;;;;0.68;0.40;;;22.50;51.30;;;;;;5111808;28;20043;-41
2021/05/17 12:22:49;;;;;;;1.17;0.52;;;22.50;51.40;;;;;;5111557;28;20096;-43
2021/05/17 12:25:22;;;;;;;0.55;0.25;;;22.50;51.30;;;;;;5112123;28;20100;-41
2021/05/17 12:27:53;;;;;;;0.43;0.32;;;22.50;51.40;;;;;;5111605;28;20051;-43
2021/05/17 12:30:22;;;;;;;0.73;0.28;;;22.50;51.40;;;;;;5112441;28;20479;-41
2021/05/17 12:32:53;;;;;;;1.10;0.40;;;22.50;51.40;;;;;;5110730;28;20065;-40
2021/05/17 12:35:32;;;;;;;0.80;0.30;;;22.50;51.40;;;;;;5102829;27;20117;-42
2021/05/17 12:38:02;;;;;;;0.68;0.40;;;22.50;51.40;;;;;;5112006;28;20491;-43
2021/05/17 12:40:42;;;;;;;0.50;0.30;;;22.50;51.40;;;;;;5110959;28;20113;-39
2021/05/17 12:43:26;;;;;;;0.93;0.30;;;22.50;51.40;;;;;;5111538;28;20048;-41
2021/05/17 12:46:00;;;;;;;1.05;0.35;;;22.50;51.40;;;;;;5111871;28;20560;-42
2021/05/17 12:48:39;;;;;;;0.68;0.30;;;22.50;51.40;;;;;;5110980;27;20048;-40
2021/05/17 12:51:17;;;;;;;0.80;0.50;;;22.50;51.40;;;;;;5112105;28;20491;-40
2021/05/17 12:53:48;;;;;;;0.70;0.40;;;22.50;51.40;;;;;;5111488;28;20047;-43
2021/05/17 12:56:27;;;;;;;1.00;0.60;;;22.50;51.40;;;;;;5111356;27;20043;-40
2021/05/17 12:58:55;;;;;;;0.80;0.30;;;22.50;51.40;;;;;;5111972;28;20120;-44
2021/05/17 13:01:23;;;;;;;0.77;0.32;;;22.50;51.40;;;;;;5111147;27;20098;-40
2021/05/17 13:03:55;;;;;;;1.30;0.68;;;22.50;51.40;;;;;;5110991;28;20083;-40
2021/05/17 13:06:28;;;;;;;0.95;0.60;;;22.50;51.40;;;;;;5111294;28;20048;-43
2021/05/17 13:09:05;;;;;;;1.70;0.87;;;22.50;51.40;;;;;;5109555;28;20543;-40
2021/05/17 13:11:36;;;;;;;1.40;0.70;;;22.50;51.40;;;;;;5112076;28;20044;-40
2021/05/17 13:14:14;;;;;;;1.33;0.73;;;22.50;51.40;;;;;;5110825;28;20097;-43
2021/05/17 13:16:57;;;;;;;6.30;4.28;;;22.50;51.40;;;;;;5109802;28;20059;-41
2021/05/17 13:23:34;;;;;;;9.23;6.20;;;22.50;51.40;;;;;;5080528;28;20051;-41
2021/05/17 13:30:00;;;;;;;9.57;5.95;;;22.50;51.40;;;;;;5069827;28;20037;-40
2021/05/17 13:31:07;;;;;;;8.50;5.30;;;22.50;51.40;;;;;;5079018;28;20094;-49
2021/05/17 13:33:42;;;;;;;8.88;5.93;;;22.50;51.40;;;;;;5083036;28;20049;-41